sensor_id;sensor_type;location;lat;lon;timestamp;P1;durP1;ratioP1;P2;durP2;ratioP2
71562;SDS011;59391;52.504;13.438;2023-04-25T00:00:10;8.05;;;4.65;;
71562;SDS011;59391;52.504;13.438;2023-04-25T00:02:36;6.27;;;4.13;;
71562;SDS011;59391;52.504;13.438;2023-04-25T00:05:02;8.18;;;4.00;;
71562;SDS011;59391;52.504;13.438;2023-04-25T00:07:29;6.00;;;3.92;;
71562;SDS011;59391;52.504;13.438;2023-04-25T00:09:56;9.70;;;3.90;;
71562;SDS011;59391;52.504;13.438;2023-04-25T00:12:21;7.68;;;3.50;;
71562;SDS011;59391;52.504;13.438;2023-04-25T00:14:47;6.85;;;4.00;;
71562;SDS011;59391;52.504;13.438;2023-04-25T00:17:14;6.83;;;3.70;;
71562;SDS011;59391;52.504;13.438;2023-04-25T00:19:44;5.35;;;3.35;;
71562;SDS011;59391;52.504;13.438;2023-04-25T00:22:11;7.22;;;3.92;;
71562;SDS011;59391;52.504;13.438;2023-04-25T00:24:38;5.60;;;3.20;;
71562;SDS011;59391;52.504;13.438;2023-04-25T00:27:03;6.40;;;3.53;;
71562;SDS011;59391;52.504;13.438;2023-04-25T00:29:29;7.45;;;3.85;;
71562;SDS011;59391;52.504;13.438;2023-04-25T00:31:55;8.17;;;3.77;;
71562;SDS011;59391;52.504;13.438;2023-04-25T00:34:20;7.93;;;4.00;;
71562;SDS011;59391;52.504;13.438;2023-04-25T00:36:46;6.15;;;3.60;;
71562;SDS011;59391;52.504;13.438;2023-04-25T00:39:12;7.70;;;3.80;;
71562;SDS011;59391;52.504;13.438;2023-04-25T00:41:38;8.27;;;3.83;;
71562;SDS011;59391;52.504;13.438;2023-04-25T00:44:04;8.48;;;4.10;;
71562;SDS011;59391;52.504;13.438;2023-04-25T00:46:35;7.55;;;3.90;;
71562;SDS011;59391;52.504;13.438;2023-04-25T00:49:01;9.85;;;3.42;;
71562;SDS011;59391;52.504;13.438;2023-04-25T00:51:27;6.53;;;3.80;;
71562;SDS011;59391;52.504;13.438;2023-04-25T00:53:53;7.53;;;3.88;;
71562;SDS011;59391;52.504;13.438;2023-04-25T00:56:19;6.45;;;3.80;;
71562;SDS011;59391;52.504;13.438;2023-04-25T00:58:46;9.50;;;4.28;;
71562;SDS011;59391;52.504;13.438;2023-04-25T01:01:13;8.63;;;3.90;;
71562;SDS011;59391;52.504;13.438;2023-04-25T01:03:39;10.00;;;4.60;;
71562;SDS011;59391;52.504;13.438;2023-04-25T02:08:33;8.05;;;4.50;;
71562;SDS011;59391;52.504;13.438;2023-04-25T02:10:59;9.13;;;4.43;;
71562;SDS011;59391;52.504;13.438;2023-04-25T02:13:24;7.97;;;4.43;;
71562;SDS011;59391;52.504;13.438;2023-04-25T02:15:50;7.50;;;4.33;;
71562;SDS011;59391;52.504;13.438;2023-04-25T02:18:16;11.07;;;4.75;;
71562;SDS011;59391;52.504;13.438;2023-04-25T02:20:42;8.53;;;4.90;;
71562;SDS011;59391;52.504;13.438;2023-04-25T02:23:08;8.00;;;4.15;;
71562;SDS011;59391;52.504;13.438;2023-04-25T02:25:33;8.48;;;4.85;;
71562;SDS011;59391;52.504;13.438;2023-04-25T02:27:59;8.63;;;4.83;;
71562;SDS011;59391;52.504;13.438;2023-04-25T02:30:25;10.27;;;4.97;;
71562;SDS011;59391;52.504;13.438;2023-04-25T02:32:50;10.77;;;4.73;;
71562;SDS011;59391;52.504;13.438;2023-04-25T02:35:16;8.43;;;4.57;;
71562;SDS011;59391;52.504;13.438;2023-04-25T02:37:42;9.85;;;4.95;;
71562;SDS011;59391;52.504;13.438;2023-04-25T02:40:08;7.22;;;4.72;;
71562;SDS011;59391;52.504;13.438;2023-04-25T02:42:34;9.40;;;4.93;;
71562;SDS011;59391;52.504;13.438;2023-04-25T02:45:01;10.73;;;5.10;;
71562;SDS011;59391;52.504;13.438;2023-04-25T02:47:27;11.00;;;5.20;;
71562;SDS011;59391;52.504;13.438;2023-04-25T02:49:53;8.93;;;4.95;;
71562;SDS011;59391;52.504;13.438;2023-04-25T02:52:19;8.27;;;4.93;;
71562;SDS011;59391;52.504;13.438;2023-04-25T02:54:46;11.77;;;5.40;;
71562;SDS011;59391;52.504;13.438;2023-04-25T02:57:11;8.07;;;5.00;;
71562;SDS011;59391;52.504;13.438;2023-04-25T02:59:37;10.90;;;5.05;;
71562;SDS011;59391;52.504;13.438;2023-04-25T03:02:02;8.93;;;4.97;;
71562;SDS011;59391;52.504;13.438;2023-04-25T03:04:28;8.68;;;5.00;;
71562;SDS011;59391;52.504;13.438;2023-04-25T03:06:54;9.25;;;5.97;;
71562;SDS011;59391;52.504;13.438;2023-04-25T03:09:20;10.63;;;5.70;;
71562;SDS011;59391;52.504;13.438;2023-04-25T03:11:46;9.52;;;5.30;;
71562;SDS011;59391;52.504;13.438;2023-04-25T03:14:11;9.00;;;5.00;;
71562;SDS011;59391;52.504;13.438;2023-04-25T03:16:38;10.60;;;5.20;;
71562;SDS011;59391;52.504;13.438;2023-04-25T03:19:04;9.48;;;5.00;;
71562;SDS011;59391;52.504;13.438;2023-04-25T03:21:30;12.13;;;5.30;;
71562;SDS011;59391;52.504;13.438;2023-04-25T03:23:58;10.80;;;5.10;;
71562;SDS011;59391;52.504;13.438;2023-04-25T03:26:27;10.83;;;5.23;;
71562;SDS011;59391;52.504;13.438;2023-04-25T03:28:53;10.75;;;5.20;;
71562;SDS011;59391;52.504;13.438;2023-04-25T03:31:19;10.52;;;5.32;;
71562;SDS011;59391;52.504;13.438;2023-04-25T03:33:45;9.80;;;5.30;;
71562;SDS011;59391;52.504;13.438;2023-04-25T03:36:10;10.15;;;5.35;;
71562;SDS011;59391;52.504;13.438;2023-04-25T03:38:36;12.20;;;5.13;;
71562;SDS011;59391;52.504;13.438;2023-04-25T03:41:02;10.03;;;5.07;;
71562;SDS011;59391;52.504;13.438;2023-04-25T03:43:28;10.77;;;5.60;;
71562;SDS011;59391;52.504;13.438;2023-04-25T03:45:54;8.52;;;5.40;;
71562;SDS011;59391;52.504;13.438;2023-04-25T03:48:19;9.43;;;5.30;;
71562;SDS011;59391;52.504;13.438;2023-04-25T03:50:47;11.55;;;5.60;;
71562;SDS011;59391;52.504;13.438;2023-04-25T03:53:12;11.57;;;5.28;;
71562;SDS011;59391;52.504;13.438;2023-04-25T03:55:38;9.93;;;5.63;;
71562;SDS011;59391;52.504;13.438;2023-04-25T03:58:04;10.30;;;5.40;;
71562;SDS011;59391;52.504;13.438;2023-04-25T04:00:30;11.57;;;5.47;;
71562;SDS011;59391;52.504;13.438;2023-04-25T04:02:55;8.15;;;5.15;;
71562;SDS011;59391;52.504;13.438;2023-04-25T04:05:21;8.33;;;4.97;;
71562;SDS011;59391;52.504;13.438;2023-04-25T04:07:48;12.05;;;5.20;;
71562;SDS011;59391;52.504;13.438;2023-04-25T04:10:13;10.13;;;5.00;;
71562;SDS011;59391;52.504;13.438;2023-04-25T04:12:39;13.10;;;6.57;;
71562;SDS011;59391;52.504;13.438;2023-04-25T04:15:05;8.40;;;4.47;;
71562;SDS011;59391;52.504;13.438;2023-04-25T04:17:32;10.30;;;4.97;;
71562;SDS011;59391;52.504;13.438;2023-04-25T04:19:58;9.60;;;4.78;;
71562;SDS011;59391;52.504;13.438;2023-04-25T04:22:24;12.30;;;5.07;;
71562;SDS011;59391;52.504;13.438;2023-04-25T04:24:50;9.53;;;4.80;;
71562;SDS011;59391;52.504;13.438;2023-04-25T04:27:19;9.60;;;5.05;;
71562;SDS011;59391;52.504;13.438;2023-04-25T04:29:45;9.85;;;5.07;;
71562;SDS011;59391;52.504;13.438;2023-04-25T04:32:11;11.43;;;4.53;;
71562;SDS011;59391;52.504;13.438;2023-04-25T04:34:38;9.50;;;4.60;;
71562;SDS011;59391;52.504;13.438;2023-04-25T04:37:04;9.07;;;5.25;;
71562;SDS011;59391;52.504;13.438;2023-04-25T04:39:31;11.63;;;5.30;;
71562;SDS011;59391;52.504;13.438;2023-04-25T04:42:01;9.65;;;5.38;;
71562;SDS011;59391;52.504;13.438;2023-04-25T04:44:26;9.00;;;4.88;;
71562;SDS011;59391;52.504;13.438;2023-04-25T04:46:53;8.88;;;5.10;;
71562;SDS011;59391;52.504;13.438;2023-04-25T04:49:19;8.97;;;5.17;;
71562;SDS011;59391;52.504;13.438;2023-04-25T04:51:45;9.15;;;5.07;;
71562;SDS011;59391;52.504;13.438;2023-04-25T04:54:12;12.02;;;4.95;;
71562;SDS011;59391;52.504;13.438;2023-04-25T04:56:37;10.30;;;5.22;;
71562;SDS011;59391;52.504;13.438;2023-04-25T04:59:03;9.75;;;5.07;;
71562;SDS011;59391;52.504;13.438;2023-04-25T05:01:29;8.38;;;4.53;;
71562;SDS011;59391;52.504;13.438;2023-04-25T05:03:55;9.93;;;5.30;;
71562;SDS011;59391;52.504;13.438;2023-04-25T05:06:28;12.20;;;5.72;;
71562;SDS011;59391;52.504;13.438;2023-04-25T05:08:55;8.63;;;5.35;;
71562;SDS011;59391;52.504;13.438;2023-04-25T05:11:22;8.68;;;5.10;;
71562;SDS011;59391;52.504;13.438;2023-04-25T05:13:51;10.23;;;4.95;;
71562;SDS011;59391;52.504;13.438;2023-04-25T05:16:17;11.13;;;5.03;;
71562;SDS011;59391;52.504;13.438;2023-04-25T05:18:43;10.10;;;5.35;;
71562;SDS011;59391;52.504;13.438;2023-04-25T05:21:09;10.15;;;4.65;;
71562;SDS011;59391;52.504;13.438;2023-04-25T05:23:35;8.87;;;4.70;;
71562;SDS011;59391;52.504;13.438;2023-04-25T05:26:01;11.65;;;4.85;;
71562;SDS011;59391;52.504;13.438;2023-04-25T05:28:26;9.00;;;4.83;;
71562;SDS011;59391;52.504;13.438;2023-04-25T05:30:52;11.65;;;4.80;;
71562;SDS011;59391;52.504;13.438;2023-04-25T05:33:18;10.23;;;4.70;;
71562;SDS011;59391;52.504;13.438;2023-04-25T05:35:44;10.50;;;4.22;;
71562;SDS011;59391;52.504;13.438;2023-04-25T05:38:10;8.70;;;4.17;;
71562;SDS011;59391;52.504;13.438;2023-04-25T05:40:36;10.20;;;5.40;;
71562;SDS011;59391;52.504;13.438;2023-04-25T05:43:02;10.18;;;5.30;;
71562;SDS011;59391;52.504;13.438;2023-04-25T05:45:27;9.13;;;5.50;;
71562;SDS011;59391;52.504;13.438;2023-04-25T05:47:53;9.20;;;5.13;;
71562;SDS011;59391;52.504;13.438;2023-04-25T05:50:19;11.07;;;5.57;;
71562;SDS011;59391;52.504;13.438;2023-04-25T05:52:44;8.48;;;5.05;;
71562;SDS011;59391;52.504;13.438;2023-04-25T05:55:10;11.80;;;5.37;;
71562;SDS011;59391;52.504;13.438;2023-04-25T05:57:36;10.48;;;5.70;;
71562;SDS011;59391;52.504;13.438;2023-04-25T06:00:01;10.10;;;5.73;;
71562;SDS011;59391;52.504;13.438;2023-04-25T06:02:28;9.63;;;5.60;;
71562;SDS011;59391;52.504;13.438;2023-04-25T06:04:56;10.10;;;5.38;;
71562;SDS011;59391;52.504;13.438;2023-04-25T06:07:22;11.00;;;6.13;;
71562;SDS011;59391;52.504;13.438;2023-04-25T06:09:47;10.73;;;5.67;;
71562;SDS011;59391;52.504;13.438;2023-04-25T06:12:14;15.13;;;5.80;;
71562;SDS011;59391;52.504;13.438;2023-04-25T06:14:40;12.57;;;6.03;;
71562;SDS011;59391;52.504;13.438;2023-04-25T06:17:06;12.73;;;6.30;;
71562;SDS011;59391;52.504;13.438;2023-04-25T06:19:33;11.90;;;5.88;;
71562;SDS011;59391;52.504;13.438;2023-04-25T06:22:00;10.82;;;5.65;;
71562;SDS011;59391;52.504;13.438;2023-04-25T06:24:26;11.30;;;6.05;;
71562;SDS011;59391;52.504;13.438;2023-04-25T06:26:52;11.60;;;6.15;;
71562;SDS011;59391;52.504;13.438;2023-04-25T06:29:19;9.20;;;5.30;;
71562;SDS011;59391;52.504;13.438;2023-04-25T06:31:45;10.32;;;5.70;;
71562;SDS011;59391;52.504;13.438;2023-04-25T06:34:11;11.82;;;6.13;;
71562;SDS011;59391;52.504;13.438;2023-04-25T06:36:36;10.07;;;5.83;;
71562;SDS011;59391;52.504;13.438;2023-04-25T06:39:02;12.60;;;6.13;;
71562;SDS011;59391;52.504;13.438;2023-04-25T06:41:28;11.15;;;5.68;;
71562;SDS011;59391;52.504;13.438;2023-04-25T06:43:53;11.07;;;6.17;;
71562;SDS011;59391;52.504;13.438;2023-04-25T06:46:19;10.45;;;5.68;;
71562;SDS011;59391;52.504;13.438;2023-04-25T06:48:45;11.30;;;5.90;;
71562;SDS011;59391;52.504;13.438;2023-04-25T06:51:10;9.98;;;4.85;;
71562;SDS011;59391;52.504;13.438;2023-04-25T06:53:38;13.75;;;6.07;;
71562;SDS011;59391;52.504;13.438;2023-04-25T06:56:04;12.93;;;6.03;;
71562;SDS011;59391;52.504;13.438;2023-04-25T06:58:30;13.65;;;6.13;;
71562;SDS011;59391;52.504;13.438;2023-04-25T07:00:55;12.90;;;5.40;;
71562;SDS011;59391;52.504;13.438;2023-04-25T07:03:21;10.77;;;5.37;;
71562;SDS011;59391;52.504;13.438;2023-04-25T07:05:47;9.75;;;5.68;;
71562;SDS011;59391;52.504;13.438;2023-04-25T07:08:13;14.80;;;5.90;;
71562;SDS011;59391;52.504;13.438;2023-04-25T07:10:38;12.35;;;5.55;;
71562;SDS011;59391;52.504;13.438;2023-04-25T07:13:05;14.05;;;5.68;;
71562;SDS011;59391;52.504;13.438;2023-04-25T07:15:30;11.63;;;5.50;;
71562;SDS011;59391;52.504;13.438;2023-04-25T07:17:56;15.30;;;5.60;;
71562;SDS011;59391;52.504;13.438;2023-04-25T07:20:21;11.27;;;5.60;;
71562;SDS011;59391;52.504;13.438;2023-04-25T07:22:47;9.25;;;4.57;;
71562;SDS011;59391;52.504;13.438;2023-04-25T07:25:13;7.53;;;5.00;;
71562;SDS011;59391;52.504;13.438;2023-04-25T07:27:38;11.55;;;5.80;;
71562;SDS011;59391;52.504;13.438;2023-04-25T07:30:04;8.17;;;4.70;;
71562;SDS011;59391;52.504;13.438;2023-04-25T07:32:31;9.48;;;5.18;;
71562;SDS011;59391;52.504;13.438;2023-04-25T07:34:56;10.77;;;5.10;;
71562;SDS011;59391;52.504;13.438;2023-04-25T07:37:22;11.05;;;5.15;;
71562;SDS011;59391;52.504;13.438;2023-04-25T07:39:48;10.97;;;4.83;;
71562;SDS011;59391;52.504;13.438;2023-04-25T07:42:13;9.18;;;5.40;;
71562;SDS011;59391;52.504;13.438;2023-04-25T07:44:39;13.07;;;5.27;;
71562;SDS011;59391;52.504;13.438;2023-04-25T07:47:05;12.15;;;5.07;;
71562;SDS011;59391;52.504;13.438;2023-04-25T07:49:32;10.27;;;4.87;;
71562;SDS011;59391;52.504;13.438;2023-04-25T07:52:02;13.07;;;5.25;;
71562;SDS011;59391;52.504;13.438;2023-04-25T07:54:30;12.18;;;5.75;;
71562;SDS011;59391;52.504;13.438;2023-04-25T07:56:57;11.00;;;5.20;;
71562;SDS011;59391;52.504;13.438;2023-04-25T07:59:23;14.30;;;5.32;;
71562;SDS011;59391;52.504;13.438;2023-04-25T08:01:49;15.60;;;5.40;;
71562;SDS011;59391;52.504;13.438;2023-04-25T08:04:15;10.20;;;5.30;;
71562;SDS011;59391;52.504;13.438;2023-04-25T08:06:41;12.38;;;5.00;;
71562;SDS011;59391;52.504;13.438;2023-04-25T08:09:07;15.80;;;5.45;;
71562;SDS011;59391;52.504;13.438;2023-04-25T08:11:34;12.55;;;5.03;;
71562;SDS011;59391;52.504;13.438;2023-04-25T08:14:00;16.20;;;5.30;;
71562;SDS011;59391;52.504;13.438;2023-04-25T08:16:26;13.02;;;4.90;;
71562;SDS011;59391;52.504;13.438;2023-04-25T08:18:52;14.35;;;4.55;;
71562;SDS011;59391;52.504;13.438;2023-04-25T08:21:19;11.38;;;4.43;;
71562;SDS011;59391;52.504;13.438;2023-04-25T08:23:45;14.40;;;4.40;;
71562;SDS011;59391;52.504;13.438;2023-04-25T08:26:11;13.45;;;4.82;;
71562;SDS011;59391;52.504;13.438;2023-04-25T08:28:36;15.07;;;5.30;;
71562;SDS011;59391;52.504;13.438;2023-04-25T08:31:05;13.50;;;5.00;;
71562;SDS011;59391;52.504;13.438;2023-04-25T08:33:31;14.73;;;5.43;;
71562;SDS011;59391;52.504;13.438;2023-04-25T08:35:57;15.27;;;5.57;;
71562;SDS011;59391;52.504;13.438;2023-04-25T08:38:23;18.50;;;6.05;;
71562;SDS011;59391;52.504;13.438;2023-04-25T08:40:49;17.95;;;5.45;;
71562;SDS011;59391;52.504;13.438;2023-04-25T08:43:17;13.15;;;4.95;;
71562;SDS011;59391;52.504;13.438;2023-04-25T08:45:45;14.68;;;5.13;;
71562;SDS011;59391;52.504;13.438;2023-04-25T08:48:15;12.02;;;4.70;;
71562;SDS011;59391;52.504;13.438;2023-04-25T08:50:45;15.65;;;5.55;;
71562;SDS011;59391;52.504;13.438;2023-04-25T08:53:21;18.13;;;4.88;;
71562;SDS011;59391;52.504;13.438;2023-04-25T08:55:58;11.38;;;4.00;;
71562;SDS011;59391;52.504;13.438;2023-04-25T08:58:28;11.18;;;4.15;;
71562;SDS011;59391;52.504;13.438;2023-04-25T09:00:55;10.32;;;4.70;;
71562;SDS011;59391;52.504;13.438;2023-04-25T09:03:21;13.60;;;4.33;;
71562;SDS011;59391;52.504;13.438;2023-04-25T09:05:46;15.57;;;4.65;;
71562;SDS011;59391;52.504;13.438;2023-04-25T09:08:12;10.40;;;4.00;;
71562;SDS011;59391;52.504;13.438;2023-04-25T09:10:38;10.70;;;3.65;;
71562;SDS011;59391;52.504;13.438;2023-04-25T09:13:14;13.02;;;4.10;;
71562;SDS011;59391;52.504;13.438;2023-04-25T09:15:51;12.75;;;4.30;;
71562;SDS011;59391;52.504;13.438;2023-04-25T09:18:26;12.20;;;3.75;;
71562;SDS011;59391;52.504;13.438;2023-04-25T09:21:04;12.40;;;3.90;;
71562;SDS011;59391;52.504;13.438;2023-04-25T09:23:38;14.60;;;3.67;;
71562;SDS011;59391;52.504;13.438;2023-04-25T09:26:07;8.73;;;3.30;;
71562;SDS011;59391;52.504;13.438;2023-04-25T09:28:34;12.55;;;3.65;;
71562;SDS011;59391;52.504;13.438;2023-04-25T09:31:00;11.15;;;3.88;;
71562;SDS011;59391;52.504;13.438;2023-04-25T09:33:27;10.45;;;3.78;;
71562;SDS011;59391;52.504;13.438;2023-04-25T09:36:02;12.70;;;4.10;;
71562;SDS011;59391;52.504;13.438;2023-04-25T09:38:51;11.27;;;3.80;;
71562;SDS011;59391;52.504;13.438;2023-04-25T09:41:22;9.60;;;3.40;;
71562;SDS011;59391;52.504;13.438;2023-04-25T09:43:49;8.93;;;3.53;;
71562;SDS011;59391;52.504;13.438;2023-04-25T09:46:15;9.70;;;3.30;;
71562;SDS011;59391;52.504;13.438;2023-04-25T09:48:49;9.48;;;3.30;;
71562;SDS011;59391;52.504;13.438;2023-04-25T09:51:16;10.98;;;3.42;;
71562;SDS011;59391;52.504;13.438;2023-04-25T09:53:45;9.13;;;3.50;;
71562;SDS011;59391;52.504;13.438;2023-04-25T09:56:15;9.63;;;3.08;;
71562;SDS011;59391;52.504;13.438;2023-04-25T09:58:41;7.77;;;3.40;;
71562;SDS011;59391;52.504;13.438;2023-04-25T10:01:07;9.00;;;3.05;;
71562;SDS011;59391;52.504;13.438;2023-04-25T10:03:39;8.82;;;3.33;;
71562;SDS011;59391;52.504;13.438;2023-04-25T10:06:18;9.02;;;2.97;;
71562;SDS011;59391;52.504;13.438;2023-04-25T10:08:47;11.93;;;3.60;;
71562;SDS011;59391;52.504;13.438;2023-04-25T10:11:18;9.30;;;3.40;;
71562;SDS011;59391;52.504;13.438;2023-04-25T10:13:46;10.13;;;3.40;;
71562;SDS011;59391;52.504;13.438;2023-04-25T10:16:12;8.38;;;3.45;;
71562;SDS011;59391;52.504;13.438;2023-04-25T10:18:38;9.82;;;3.03;;
71562;SDS011;59391;52.504;13.438;2023-04-25T10:21:04;7.85;;;3.30;;
71562;SDS011;59391;52.504;13.438;2023-04-25T10:23:31;9.73;;;3.58;;
71562;SDS011;59391;52.504;13.438;2023-04-25T10:25:59;9.25;;;3.70;;
71562;SDS011;59391;52.504;13.438;2023-04-25T10:28:26;7.95;;;3.30;;
71562;SDS011;59391;52.504;13.438;2023-04-25T10:30:58;6.32;;;3.03;;
71562;SDS011;59391;52.504;13.438;2023-04-25T10:33:33;8.50;;;3.20;;
71562;SDS011;59391;52.504;13.438;2023-04-25T10:36:14;7.75;;;3.42;;
71562;SDS011;59391;52.504;13.438;2023-04-25T10:38:44;8.55;;;3.50;;
71562;SDS011;59391;52.504;13.438;2023-04-25T10:41:11;11.77;;;3.50;;
71562;SDS011;59391;52.504;13.438;2023-04-25T10:46:15;11.82;;;3.72;;
71562;SDS011;59391;52.504;13.438;2023-04-25T10:48:51;19.75;;;7.03;;
71562;SDS011;59391;52.504;13.438;2023-04-25T10:51:23;11.05;;;3.85;;
71562;SDS011;59391;52.504;13.438;2023-04-25T10:56:20;9.68;;;3.72;;
71562;SDS011;59391;52.504;13.438;2023-04-25T10:59:06;12.05;;;3.80;;
71562;SDS011;59391;52.504;13.438;2023-04-25T11:01:38;8.20;;;3.63;;
71562;SDS011;59391;52.504;13.438;2023-04-25T11:04:18;12.98;;;3.78;;
71562;SDS011;59391;52.504;13.438;2023-04-25T11:09:48;10.55;;;3.88;;
71562;SDS011;59391;52.504;13.438;2023-04-25T11:12:14;7.90;;;3.10;;
71562;SDS011;59391;52.504;13.438;2023-04-25T11:14:41;8.55;;;3.53;;
71562;SDS011;59391;52.504;13.438;2023-04-25T11:17:07;11.30;;;3.38;;
71562;SDS011;59391;52.504;13.438;2023-04-25T11:19:33;10.45;;;3.95;;
71562;SDS011;59391;52.504;13.438;2023-04-25T11:22:00;9.27;;;3.83;;
71562;SDS011;59391;52.504;13.438;2023-04-25T11:24:31;12.40;;;3.88;;
71562;SDS011;59391;52.504;13.438;2023-04-25T11:26:59;13.70;;;3.88;;
71562;SDS011;59391;52.504;13.438;2023-04-25T11:29:31;9.70;;;3.17;;
71562;SDS011;59391;52.504;13.438;2023-04-25T11:31:58;12.50;;;3.53;;
71562;SDS011;59391;52.504;13.438;2023-04-25T11:34:25;10.27;;;3.70;;
71562;SDS011;59391;52.504;13.438;2023-04-25T11:36:51;9.55;;;3.00;;
71562;SDS011;59391;52.504;13.438;2023-04-25T11:39:18;8.30;;;2.80;;
71562;SDS011;59391;52.504;13.438;2023-04-25T11:41:44;8.45;;;3.38;;
71562;SDS011;59391;52.504;13.438;2023-04-25T11:44:11;8.35;;;2.85;;
71562;SDS011;59391;52.504;13.438;2023-04-25T11:46:41;10.13;;;3.33;;
71562;SDS011;59391;52.504;13.438;2023-04-25T11:49:07;8.43;;;2.90;;
71562;SDS011;59391;52.504;13.438;2023-04-25T11:51:40;8.55;;;3.00;;
71562;SDS011;59391;52.504;13.438;2023-04-25T11:54:08;7.50;;;2.80;;
71562;SDS011;59391;52.504;13.438;2023-04-25T11:56:34;6.85;;;2.90;;
71562;SDS011;59391;52.504;13.438;2023-04-25T11:59:00;7.35;;;3.13;;
71562;SDS011;59391;52.504;13.438;2023-04-25T12:01:31;8.63;;;3.30;;
71562;SDS011;59391;52.504;13.438;2023-04-25T12:04:09;11.00;;;3.45;;
71562;SDS011;59391;52.504;13.438;2023-04-25T12:06:38;7.22;;;3.20;;
71562;SDS011;59391;52.504;13.438;2023-04-25T12:09:07;7.40;;;2.97;;
71562;SDS011;59391;52.504;13.438;2023-04-25T12:14:08;9.63;;;3.25;;
71562;SDS011;59391;52.504;13.438;2023-04-25T12:16:45;9.40;;;3.08;;
71562;SDS011;59391;52.504;13.438;2023-04-25T12:19:15;10.00;;;3.38;;
71562;SDS011;59391;52.504;13.438;2023-04-25T12:21:44;10.48;;;3.50;;
71562;SDS011;59391;52.504;13.438;2023-04-25T12:24:10;6.88;;;3.20;;
71562;SDS011;59391;52.504;13.438;2023-04-25T12:26:52;8.57;;;3.17;;
71562;SDS011;59391;52.504;13.438;2023-04-25T12:29:31;7.07;;;2.97;;
71562;SDS011;59391;52.504;13.438;2023-04-25T12:31:58;8.27;;;3.20;;
71562;SDS011;59391;52.504;13.438;2023-04-25T12:34:26;8.02;;;3.58;;
71562;SDS011;59391;52.504;13.438;2023-04-25T12:36:53;7.28;;;3.10;;
71562;SDS011;59391;52.504;13.438;2023-04-25T12:39:20;6.57;;;2.92;;
71562;SDS011;59391;52.504;13.438;2023-04-25T12:41:49;9.40;;;3.17;;
71562;SDS011;59391;52.504;13.438;2023-04-25T12:44:19;7.13;;;3.10;;
71562;SDS011;59391;52.504;13.438;2023-04-25T12:46:46;6.65;;;2.65;;
71562;SDS011;59391;52.504;13.438;2023-04-25T12:49:13;7.97;;;3.45;;
71562;SDS011;59391;52.504;13.438;2023-04-25T12:51:38;7.10;;;2.80;;
71562;SDS011;59391;52.504;13.438;2023-04-25T12:54:05;8.70;;;3.30;;
71562;SDS011;59391;52.504;13.438;2023-04-25T12:56:34;7.82;;;2.95;;
71562;SDS011;59391;52.504;13.438;2023-04-25T12:59:01;8.82;;;3.28;;
71562;SDS011;59391;52.504;13.438;2023-04-25T13:01:30;7.90;;;3.03;;
71562;SDS011;59391;52.504;13.438;2023-04-25T13:03:56;7.78;;;3.22;;
71562;SDS011;59391;52.504;13.438;2023-04-25T13:06:22;9.35;;;3.00;;
71562;SDS011;59391;52.504;13.438;2023-04-25T13:08:48;5.10;;;2.27;;
71562;SDS011;59391;52.504;13.438;2023-04-25T13:11:14;8.07;;;3.13;;
71562;SDS011;59391;52.504;13.438;2023-04-25T13:13:40;7.33;;;3.17;;
71562;SDS011;59391;52.504;13.438;2023-04-25T13:16:06;6.85;;;3.05;;
71562;SDS011;59391;52.504;13.438;2023-04-25T13:18:33;5.22;;;2.78;;
71562;SDS011;59391;52.504;13.438;2023-04-25T13:20:59;4.90;;;2.50;;
71562;SDS011;59391;52.504;13.438;2023-04-25T13:23:26;7.63;;;3.28;;
71562;SDS011;59391;52.504;13.438;2023-04-25T13:25:53;9.20;;;2.90;;
71562;SDS011;59391;52.504;13.438;2023-04-25T13:28:22;8.05;;;2.50;;
71562;SDS011;59391;52.504;13.438;2023-04-25T13:30:49;7.72;;;2.90;;
71562;SDS011;59391;52.504;13.438;2023-04-25T13:33:15;6.88;;;2.50;;
71562;SDS011;59391;52.504;13.438;2023-04-25T13:35:41;9.17;;;3.00;;
71562;SDS011;59391;52.504;13.438;2023-04-25T13:38:07;7.85;;;2.80;;
71562;SDS011;59391;52.504;13.438;2023-04-25T13:40:33;12.68;;;2.70;;
71562;SDS011;59391;52.504;13.438;2023-04-25T13:42:59;7.78;;;3.30;;
71562;SDS011;59391;52.504;13.438;2023-04-25T13:45:26;7.10;;;3.10;;
71562;SDS011;59391;52.504;13.438;2023-04-25T13:47:52;7.35;;;2.58;;
71562;SDS011;59391;52.504;13.438;2023-04-25T13:50:17;7.57;;;3.13;;
71562;SDS011;59391;52.504;13.438;2023-04-25T13:52:43;7.18;;;3.20;;
71562;SDS011;59391;52.504;13.438;2023-04-25T13:55:09;6.90;;;2.60;;
71562;SDS011;59391;52.504;13.438;2023-04-25T13:57:35;7.32;;;3.05;;
71562;SDS011;59391;52.504;13.438;2023-04-25T14:00:02;7.97;;;2.97;;
71562;SDS011;59391;52.504;13.438;2023-04-25T14:02:33;8.15;;;3.20;;
71562;SDS011;59391;52.504;13.438;2023-04-25T14:05:00;6.80;;;2.97;;
71562;SDS011;59391;52.504;13.438;2023-04-25T14:07:27;7.07;;;2.97;;
71562;SDS011;59391;52.504;13.438;2023-04-25T14:09:52;6.70;;;2.80;;
71562;SDS011;59391;52.504;13.438;2023-04-25T14:12:18;8.43;;;2.83;;
71562;SDS011;59391;52.504;13.438;2023-04-25T14:14:43;7.67;;;3.20;;
71562;SDS011;59391;52.504;13.438;2023-04-25T14:17:09;8.45;;;2.88;;
71562;SDS011;59391;52.504;13.438;2023-04-25T14:19:35;6.82;;;3.20;;
71562;SDS011;59391;52.504;13.438;2023-04-25T14:22:02;7.13;;;3.00;;
71562;SDS011;59391;52.504;13.438;2023-04-25T14:24:28;8.93;;;3.53;;
71562;SDS011;59391;52.504;13.438;2023-04-25T14:26:53;5.30;;;2.67;;
71562;SDS011;59391;52.504;13.438;2023-04-25T14:29:19;5.40;;;2.53;;
71562;SDS011;59391;52.504;13.438;2023-04-25T14:31:45;6.27;;;3.07;;
71562;SDS011;59391;52.504;13.438;2023-04-25T14:34:10;5.32;;;3.05;;
71562;SDS011;59391;52.504;13.438;2023-04-25T14:36:36;6.73;;;2.90;;
71562;SDS011;59391;52.504;13.438;2023-04-25T14:39:02;6.07;;;3.00;;
71562;SDS011;59391;52.504;13.438;2023-04-25T14:41:30;6.40;;;2.60;;
71562;SDS011;59391;52.504;13.438;2023-04-25T14:43:55;7.97;;;3.22;;
71562;SDS011;59391;52.504;13.438;2023-04-25T14:46:21;7.43;;;3.10;;
71562;SDS011;59391;52.504;13.438;2023-04-25T14:48:48;7.28;;;2.88;;
71562;SDS011;59391;52.504;13.438;2023-04-25T14:51:14;6.90;;;2.73;;
71562;SDS011;59391;52.504;13.438;2023-04-25T14:53:40;6.20;;;2.80;;
71562;SDS011;59391;52.504;13.438;2023-04-25T14:56:06;6.57;;;2.90;;
71562;SDS011;59391;52.504;13.438;2023-04-25T14:58:32;7.60;;;3.37;;
71562;SDS011;59391;52.504;13.438;2023-04-25T15:00:58;7.80;;;3.17;;
71562;SDS011;59391;52.504;13.438;2023-04-25T15:03:24;6.60;;;3.00;;
71562;SDS011;59391;52.504;13.438;2023-04-25T15:05:51;6.47;;;3.10;;
71562;SDS011;59391;52.504;13.438;2023-04-25T15:08:17;6.90;;;3.10;;
71562;SDS011;59391;52.504;13.438;2023-04-25T15:10:43;6.78;;;3.25;;
71562;SDS011;59391;52.504;13.438;2023-04-25T15:13:10;7.32;;;2.88;;
71562;SDS011;59391;52.504;13.438;2023-04-25T15:15:36;6.23;;;2.90;;
71562;SDS011;59391;52.504;13.438;2023-04-25T15:18:02;6.70;;;2.80;;
71562;SDS011;59391;52.504;13.438;2023-04-25T15:20:28;6.80;;;2.97;;
71562;SDS011;59391;52.504;13.438;2023-04-25T15:22:54;5.57;;;2.57;;
71562;SDS011;59391;52.504;13.438;2023-04-25T15:25:20;7.32;;;2.70;;
71562;SDS011;59391;52.504;13.438;2023-04-25T15:27:46;6.77;;;2.83;;
71562;SDS011;59391;52.504;13.438;2023-04-25T15:30:14;6.78;;;2.95;;
71562;SDS011;59391;52.504;13.438;2023-04-25T15:32:42;9.27;;;3.25;;
71562;SDS011;59391;52.504;13.438;2023-04-25T15:35:09;6.75;;;2.63;;
71562;SDS011;59391;52.504;13.438;2023-04-25T15:37:35;7.53;;;2.95;;
71562;SDS011;59391;52.504;13.438;2023-04-25T15:42:44;5.97;;;2.90;;